Time;durP1;ratioP1;P1;durP2;ratioP2;P2;SDS_P1;SDS_P2;PMS_P1;PMS_P2;Temp;Humidity;BMP_temperature;BMP_pressure;BME280_temperature;BME280_humidity;BME280_pressure;Samples;Min_cycle;Max_cycle;Signal;HPM_P1;HPM_P2
2021/12/30 00:02:16;;;;;;;;;;;8.30;99.90;;;;;;5092992;28;19918;-59
2021/12/30 00:04:42;;;;;;;;;;;8.30;99.90;;;;;;5092934;28;20277;-59
2021/12/30 00:07:09;;;;;;;;;;;8.20;99.90;;;;;;5092841;28;20285;-59
2021/12/30 00:09:35;;;;;;;;;;;8.20;99.90;;;;;;5092743;28;19920;-59
2021/12/30 00:12:00;;;;;;;;;;;8.10;99.90;;;;;;5092592;28;19943;-59
2021/12/30 00:14:26;;;;;;;;;;;8.10;99.90;;;;;;5093005;28;20055;-60
2021/12/30 00:16:51;;;;;;;;;;;8.00;99.90;;;;;;5091552;28;19923;-60
2021/12/30 00:19:17;;;;;;;;;;;8.00;99.90;;;;;;5092713;28;20012;-59
2021/12/30 00:21:42;;;;;;;;;;;8.00;99.90;;;;;;5092649;28;19919;-59
2021/12/30 00:24:09;;;;;;;;;;;8.10;99.90;;;;;;5092807;28;19916;-59
2021/12/30 00:26:35;;;;;;;;;;;8.10;99.90;;;;;;5092522;28;20281;-60
2021/12/30 00:29:00;;;;;;;;;;;8.10;99.90;;;;;;5092519;28;19919;-59
2021/12/30 00:31:26;;;;;;;;;;;8.10;99.90;;;;;;5091715;28;19926;-59
2021/12/30 00:33:51;;;;;;;;;;;8.10;99.90;;;;;;5092248;28;19927;-59
2021/12/30 00:36:17;;;;;;;;;;;8.20;99.90;;;;;;5092603;28;19962;-59
2021/12/30 00:38:43;;;;;;;;;;;8.00;99.90;;;;;;5091131;28;19916;-59
2021/12/30 00:41:09;;;;;;;;;;;8.10;99.90;;;;;;5092376;28;20010;-60
2021/12/30 00:43:35;;;;;;;;;;;8.10;99.90;;;;;;5092372;28;20378;-59
2021/12/30 00:46:01;;;;;;;;;;;8.10;99.90;;;;;;5092327;28;19930;-60
2021/12/30 00:48:26;;;;;;;;;;;8.20;99.90;;;;;;5091024;28;19959;-59
2021/12/30 00:50:52;;;;;;;;;;;8.20;99.90;;;;;;5092368;28;19916;-60
2021/12/30 00:53:17;;;;;;;;;;;8.30;99.90;;;;;;5092270;28;19974;-60
2021/12/30 00:55:44;;;;;;;;;;;8.30;99.90;;;;;;5092282;28;20450;-59
2021/12/30 00:58:10;;;;;;;;;;;8.30;99.90;;;;;;5092227;28;20421;-59
2021/12/30 01:00:36;;;;;;;;;;;8.30;99.90;;;;;;5092449;28;19920;-60
2021/12/30 01:03:02;;;;;;;;;;;8.20;99.90;;;;;;5092337;28;19916;-59
2021/12/30 01:05:27;;;;;;;;;;;8.20;99.90;;;;;;5092289;28;20259;-60
2021/12/30 01:07:53;;;;;;;;;;;8.10;99.90;;;;;;5092127;28;20373;-59
2021/12/30 01:10:20;;;;;;;;;;;8.00;99.90;;;;;;5092225;28;19942;-60
2021/12/30 01:12:46;;;;;;;;;;;7.90;99.90;;;;;;5092392;28;19947;-59
2021/12/30 01:15:13;;;;;;;;;;;7.80;99.90;;;;;;5092387;28;20026;-59
2021/12/30 01:20:06;;;;;;;;;;;7.80;99.90;;;;;;5092348;28;20710;-60
2021/12/30 01:22:33;;;;;;;;;;;7.80;99.90;;;;;;5092118;28;19916;-59
2021/12/30 01:24:59;;;;;;;;;;;7.80;99.90;;;;;;5092036;28;20003;-59
2021/12/30 01:27:24;;;;;;;;;;;7.80;99.90;;;;;;5092173;28;19959;-60
2021/12/30 01:29:50;;;;;;;;;;;7.80;99.90;;;;;;5092247;28;19923;-59
2021/12/30 01:32:16;;;;;;;;;;;7.80;99.90;;;;;;5091819;28;20387;-59
2021/12/30 01:34:41;;;;;;;;;;;7.80;99.90;;;;;;5090684;28;19928;-59
2021/12/30 01:37:07;;;;;;;;;;;7.80;99.90;;;;;;5091795;28;19922;-59
2021/12/30 01:39:36;;;;;;;;;;;7.70;99.90;;;;;;5092050;28;19923;-59
2021/12/30 01:42:02;;;;;;;;;;;7.70;99.90;;;;;;5095803;28;19930;-59
2021/12/30 01:44:28;;;;;;;;;;;7.70;99.90;;;;;;5095597;28;19999;-59
2021/12/30 01:46:54;;;;;;;;;;;7.70;99.90;;;;;;5095575;28;19923;-59
2021/12/30 01:49:21;;;;;;;;;;;7.70;99.90;;;;;;5095609;28;19925;-60
2021/12/30 01:51:47;;;;;;;;;;;7.70;99.90;;;;;;5095436;28;19923;-60
2021/12/30 01:54:13;;;;;;;;;;;7.70;99.90;;;;;;5095610;28;19920;-59
2021/12/30 01:56:38;;;;;;;;;;;7.70;99.90;;;;;;5095424;28;19915;-59
2021/12/30 01:59:04;;;;;;;;;;;7.70;99.90;;;;;;5095381;28;19961;-59
2021/12/30 02:01:30;;;;;;;;;;;7.70;99.90;;;;;;5095290;28;20361;-59
2021/12/30 02:03:56;;;;;;;;;;;7.70;99.90;;;;;;5095217;28;19916;-59
2021/12/30 02:06:22;;;;;;;;;;;7.60;99.90;;;;;;5093840;28;19922;-60
2021/12/30 02:08:48;;;;;;;;;;;7.60;99.90;;;;;;5095271;28;19915;-59
2021/12/30 02:11:13;;;;;;;;;;;7.70;99.90;;;;;;5095178;28;19923;-59
2021/12/30 02:13:39;;;;;;;;;;;7.70;99.90;;;;;;5095310;28;19924;-60
2021/12/30 02:16:05;;;;;;;;;;;7.70;99.90;;;;;;5094971;28;19924;-60
2021/12/30 02:18:30;;;;;;;;;;;7.60;99.90;;;;;;5094881;28;19923;-60
2021/12/30 02:20:58;;;;;;;;;;;7.70;99.90;;;;;;5094801;28;19923;-60
2021/12/30 02:23:28;;;;;;;;;;;7.60;99.90;;;;;;5095025;28;20010;-60
2021/12/30 02:25:55;;;;;;;;;;;7.70;99.90;;;;;;5095375;28;20566;-59
2021/12/30 02:28:23;;;;;;;;;;;7.70;99.90;;;;;;5095171;28;19916;-59
2021/12/30 02:30:49;;;;;;;;;;;7.70;99.90;;;;;;5094698;28;19920;-60
2021/12/30 02:33:15;;;;;;;;;;;7.70;99.90;;;;;;5094768;28;19924;-59
2021/12/30 02:35:40;;;;;;;;;;;7.60;99.90;;;;;;5094717;28;19916;-59
2021/12/30 02:38:06;;;;;;;;;;;7.60;99.90;;;;;;5094627;28;19920;-59
2021/12/30 02:40:37;;;;;;;;;;;7.60;99.90;;;;;;5094727;28;19920;-59
2021/12/30 02:43:04;;;;;;;;;;;7.60;99.90;;;;;;5094639;28;19945;-59
2021/12/30 02:45:29;;;;;;;;;;;7.50;99.90;;;;;;5094635;28;20009;-60
2021/12/30 02:47:55;;;;;;;;;;;7.50;99.90;;;;;;5093364;28;20361;-59
2021/12/30 02:50:20;;;;;;;;;;;7.50;99.90;;;;;;5094265;28;19941;-59
2021/12/30 02:52:46;;;;;;;;;;;7.60;99.90;;;;;;5094221;28;19920;-60
2021/12/30 02:55:12;;;;;;;;;;;7.50;99.90;;;;;;5094367;28;19916;-59
2021/12/30 02:57:37;;;;;;;;;;;7.50;99.90;;;;;;5094077;28;19923;-60
2021/12/30 03:00:04;;;;;;;;;;;7.50;99.90;;;;;;5094249;28;19923;-60
2021/12/30 03:02:30;;;;;;;;;;;7.60;99.90;;;;;;5093943;28;20422;-60
2021/12/30 03:04:55;;;;;;;;;;;7.60;99.90;;;;;;5093919;28;19981;-59
2021/12/30 03:07:21;;;;;;;;;;;7.60;99.90;;;;;;5093935;28;19916;-60
2021/12/30 03:09:47;;;;;;;;;;;7.70;99.90;;;;;;5094167;28;19935;-59
2021/12/30 03:12:13;;;;;;;;;;;7.70;99.90;;;;;;5093902;28;19965;-59
2021/12/30 03:14:42;;;;;;;;;;;7.80;99.90;;;;;;5093989;28;19916;-60
2021/12/30 03:17:08;;;;;;;;;;;7.70;99.90;;;;;;5093714;28;19919;-60
2021/12/30 03:19:34;;;;;;;;;;;7.80;99.90;;;;;;5093809;28;19923;-59
2021/12/30 03:21:59;;;;;;;;;;;7.80;99.90;;;;;;5093866;28;20285;-60
2021/12/30 03:24:25;;;;;;;;;;;7.90;99.90;;;;;;5093779;28;19930;-60
2021/12/30 03:26:50;;;;;;;;;;;7.90;99.90;;;;;;5093589;28;19920;-60
2021/12/30 03:29:16;;;;;;;;;;;7.90;99.90;;;;;;5093603;28;19919;-60
2021/12/30 03:31:41;;;;;;;;;;;8.00;99.90;;;;;;5093635;28;19916;-60
2021/12/30 03:34:07;;;;;;;;;;;8.10;99.90;;;;;;5093002;28;19920;-60
2021/12/30 03:36:33;;;;;;;;;;;8.20;99.90;;;;;;5093481;28;19915;-60
2021/12/30 03:38:59;;;;;;;;;;;8.20;99.90;;;;;;5093337;28;19916;-60
2021/12/30 03:41:26;;;;;;;;;;;8.30;99.90;;;;;;5093324;28;19943;-60
2021/12/30 03:43:51;;;;;;;;;;;8.30;99.90;;;;;;5093319;28;19916;-60
2021/12/30 03:46:17;;;;;;;;;;;8.20;99.90;;;;;;5093314;28;19916;-60
2021/12/30 03:48:44;;;;;;;;;;;8.30;99.90;;;;;;5093055;28;19994;-60
2021/12/30 03:51:13;;;;;;;;;;;8.30;99.90;;;;;;5093139;28;19931;-60
2021/12/30 03:53:41;;;;;;;;;;;8.20;99.90;;;;;;5093222;28;19920;-60
2021/12/30 03:56:07;;;;;;;;;;;8.20;99.90;;;;;;5093116;28;20259;-60
2021/12/30 03:58:33;;;;;;;;;;;8.20;99.90;;;;;;5093100;28;19952;-60
2021/12/30 04:00:58;;;;;;;;;;;8.30;99.90;;;;;;5093057;28;19916;-60
2021/12/30 04:03:24;;;;;;;;;;;8.30;99.90;;;;;;5092567;28;19978;-60
2021/12/30 04:05:49;;;;;;;;;;;8.40;99.90;;;;;;5092916;28;19916;-60
2021/12/30 04:08:15;;;;;;;;;;;8.50;99.90;;;;;;5093027;28;20002;-60
2021/12/30 04:10:41;;;;;;;;;;;8.40;99.90;;;;;;5092918;28;20006;-60
2021/12/30 04:13:06;;;;;;;;;;;8.50;99.90;;;;;;5092607;28;19920;-60
2021/12/30 04:15:32;;;;;;;;;;;8.50;99.90;;;;;;5092648;28;19915;-59
2021/12/30 04:17:57;;;;;;;;;;;8.50;99.90;;;;;;5092763;28;20010;-60
2021/12/30 04:20:23;;;;;;;;;;;8.50;99.90;;;;;;5092829;28;19916;-60
2021/12/30 04:22:48;;;;;;;;;;;8.60;99.90;;;;;;5093077;28;19942;-60
2021/12/30 04:25:15;;;;;;;;;;;8.60;99.90;;;;;;5092760;28;20029;-61
2021/12/30 04:27:41;;;;;;;;;;;8.60;99.90;;;;;;5092659;28;19916;-60
2021/12/30 04:30:07;;;;;;;;;;;8.70;99.90;;;;;;5091355;28;19978;-60
2021/12/30 04:32:33;;;;;;;;;;;8.80;99.90;;;;;;5092400;28;19927;-60
2021/12/30 04:34:58;;;;;;;;;;;8.80;99.90;;;;;;5092207;28;19920;-61
2021/12/30 04:37:24;;;;;;;;;;;8.80;99.90;;;;;;5092642;28;19977;-60
2021/12/30 04:39:49;;;;;;;;;;;8.90;99.90;;;;;;5092622;28;20274;-61
2021/12/30 04:42:15;;;;;;;;;;;9.00;99.90;;;;;;5092366;28;20008;-60
2021/12/30 04:44:43;;;;;;;;;;;9.00;99.90;;;;;;5092473;28;19920;-60
2021/12/30 04:47:09;;;;;;;;;;;9.10;99.90;;;;;;5092476;28;20010;-60
2021/12/30 04:49:34;;;;;;;;;;;9.00;99.90;;;;;;5092402;28;20073;-60
2021/12/30 04:52:00;;;;;;;;;;;9.00;99.90;;;;;;5092399;28;20392;-60
2021/12/30 04:54:25;;;;;;;;;;;9.00;99.90;;;;;;5092345;28;19995;-61
2021/12/30 04:56:51;;;;;;;;;;;9.00;99.90;;;;;;5092288;28;20408;-60
2021/12/30 04:59:17;;;;;;;;;;;9.10;99.90;;;;;;5092283;28;20046;-60
2021/12/30 05:01:42;;;;;;;;;;;9.20;99.90;;;;;;5092511;28;19916;-61
2021/12/30 05:04:08;;;;;;;;;;;9.20;99.90;;;;;;5092336;28;19916;-60
2021/12/30 05:06:36;;;;;;;;;;;9.20;99.90;;;;;;5092600;28;20009;-60
2021/12/30 05:09:02;;;;;;;;;;;9.30;99.90;;;;;;5092319;28;19945;-61
2021/12/30 05:11:27;;;;;;;;;;;9.40;99.90;;;;;;5092346;28;19920;-61
2021/12/30 05:13:53;;;;;;;;;;;9.50;99.90;;;;;;5092879;28;20693;-61
2021/12/30 05:16:18;;;;;;;;;;;9.50;99.90;;;;;;5096411;28;19916;-60
2021/12/30 05:18:44;;;;;;;;;;;9.50;99.90;;;;;;5096210;28;19920;-60
2021/12/30 05:21:10;;;;;;;;;;;9.70;99.90;;;;;;5095981;28;20361;-61
2021/12/30 05:23:36;;;;;;;;;;;9.70;99.90;;;;;;5096073;28;19962;-60
2021/12/30 05:26:02;;;;;;;;;;;9.70;99.90;;;;;;5094746;28;19916;-61
2021/12/30 05:28:27;;;;;;;;;;;9.80;99.90;;;;;;5096044;28;19916;-61
2021/12/30 05:30:53;;;;;;;;;;;9.90;99.90;;;;;;5096152;28;20315;-61
2021/12/30 05:33:20;;;;;;;;;;;9.90;99.90;;;;;;5095835;28;20018;-60
2021/12/30 05:35:46;;;;;;;;;;;9.90;99.90;;;;;;5095396;28;20454;-61
2021/12/30 05:38:14;;;;;;;;;;;10.00;99.90;;;;;;5095590;28;19916;-60
2021/12/30 05:40:40;;;;;;;;;;;10.00;99.90;;;;;;5095686;28;19951;-61
2021/12/30 05:43:05;;;;;;;;;;;10.00;99.90;;;;;;5095646;28;20401;-61
2021/12/30 05:45:31;;;;;;;;;;;10.10;99.90;;;;;;5095763;28;19916;-60
2021/12/30 05:47:56;;;;;;;;;;;10.10;99.90;;;;;;5095568;28;20423;-60
2021/12/30 05:50:24;;;;;;;;;;;10.10;99.90;;;;;;5095579;28;19916;-60
2021/12/30 05:52:49;;;;;;;;;;;10.10;99.90;;;;;;5095449;28;19920;-60
2021/12/30 05:55:15;;;;;;;;;;;10.20;99.90;;;;;;5095499;28;20336;-60
2021/12/30 05:57:41;;;;;;;;;;;10.20;99.90;;;;;;5095396;28;20008;-60
2021/12/30 06:00:08;;;;;;;;;;;10.20;99.90;;;;;;5095579;28;19931;-60
2021/12/30 06:02:34;;;;;;;;;;;10.30;99.90;;;;;;5095455;28;19916;-60
2021/12/30 06:05:00;;;;;;;;;;;10.30;99.90;;;;;;5095585;28;19922;-60
2021/12/30 06:07:25;;;;;;;;;;;10.30;99.90;;;;;;5095327;28;19920;-60
2021/12/30 06:09:51;;;;;;;;;;;10.30;99.90;;;;;;5095184;28;19916;-61
2021/12/30 06:12:16;;;;;;;;;;;10.30;99.90;;;;;;5095066;28;19939;-61
2021/12/30 06:14:42;;;;;;;;;;;10.40;99.90;;;;;;5095206;28;19980;-60
2021/12/30 06:17:08;;;;;;;;;;;10.40;99.90;;;;;;5094842;28;20007;-60
2021/12/30 06:19:33;;;;;;;;;;;10.40;99.90;;;;;;5095036;28;20293;-60
2021/12/30 06:21:59;;;;;;;;;;;10.50;99.90;;;;;;5094931;28;19920;-60
2021/12/30 06:24:24;;;;;;;;;;;10.40;99.90;;;;;;5094736;28;19919;-60
2021/12/30 06:26:50;;;;;;;;;;;10.40;99.90;;;;;;5093923;28;19922;-60
2021/12/30 06:29:15;;;;;;;;;;;10.50;99.90;;;;;;5094865;28;19916;-60
2021/12/30 06:31:41;;;;;;;;;;;10.40;99.90;;;;;;5094889;28;20281;-60
2021/12/30 06:34:07;;;;;;;;;;;10.50;99.90;;;;;;5094640;28;20469;-61
2021/12/30 06:36:32;;;;;;;;;;;10.50;99.90;;;;;;5094521;28;20332;-60
2021/12/30 06:38:58;;;;;;;;;;;10.50;99.90;;;;;;5094663;28;19919;-60
2021/12/30 06:41:24;;;;;;;;;;;10.50;99.90;;;;;;5094745;28;20693;-60
2021/12/30 06:43:49;;;;;;;;;;;10.50;99.90;;;;;;5094665;28;19916;-60
2021/12/30 06:46:19;;;;;;;;;;;10.60;99.90;;;;;;5094581;28;20298;-60
2021/12/30 06:48:45;;;;;;;;;;;10.50;99.90;;;;;;5094599;28;19964;-60
2021/12/30 06:51:14;;;;;;;;;;;10.60;99.90;;;;;;5094491;28;20654;-61
2021/12/30 06:53:40;;;;;;;;;;;10.60;99.90;;;;;;5094414;28;19924;-60
2021/12/30 06:56:05;;;;;;;;;;;10.60;99.90;;;;;;5094500;28;20710;-60
2021/12/30 06:58:31;;;;;;;;;;;10.60;99.90;;;;;;5094429;28;20300;-60
2021/12/30 07:00:57;;;;;;;;;;;10.60;99.90;;;;;;5094096;28;19976;-61
2021/12/30 07:03:23;;;;;;;;;;;10.70;99.90;;;;;;5094094;28;20374;-61
2021/12/30 07:05:51;;;;;;;;;;;10.70;99.90;;;;;;5094155;28;19956;-60
2021/12/30 07:08:17;;;;;;;;;;;10.70;99.90;;;;;;5093990;28;19916;-61
2021/12/30 07:10:42;;;;;;;;;;;10.80;99.90;;;;;;5093912;28;20278;-60
2021/12/30 07:13:08;;;;;;;;;;;10.80;99.90;;;;;;5093769;28;19965;-60
2021/12/30 07:15:34;;;;;;;;;;;10.80;99.90;;;;;;5093974;28;19955;-61
2021/12/30 07:17:59;;;;;;;;;;;10.80;99.90;;;;;;5093746;28;19916;-61
2021/12/30 07:20:25;;;;;;;;;;;10.80;99.90;;;;;;5093750;28;19919;-60
2021/12/30 07:22:50;;;;;;;;;;;10.80;99.90;;;;;;5093688;28;19916;-62
2021/12/30 07:25:18;;;;;;;;;;;10.80;99.90;;;;;;5093683;28;20024;-61
2021/12/30 07:27:45;;;;;;;;;;;10.80;99.90;;;;;;5093593;28;20405;-62
2021/12/30 07:30:11;;;;;;;;;;;10.90;99.90;;;;;;5093734;28;19916;-61
2021/12/30 07:32:36;;;;;;;;;;;10.90;99.90;;;;;;5093636;28;20289;-61
2021/12/30 07:35:02;;;;;;;;;;;10.90;99.90;;;;;;5093451;28;19920;-61
2021/12/30 07:37:28;;;;;;;;;;;10.90;99.90;;;;;;5092434;28;20434;-61
2021/12/30 07:39:53;;;;;;;;;;;10.90;99.90;;;;;;5093121;28;19924;-61
2021/12/30 07:42:19;;;;;;;;;;;10.90;99.90;;;;;;5093290;28;19920;-61
2021/12/30 07:44:44;;;;;;;;;;;10.90;99.90;;;;;;5093654;28;19998;-61
2021/12/30 07:47:10;;;;;;;;;;;10.90;99.90;;;;;;5093319;28;20346;-62
2021/12/30 07:49:36;;;;;;;;;;;11.00;99.90;;;;;;5093233;28;20346;-61
2021/12/30 07:52:03;;;;;;;;;;;10.90;99.90;;;;;;5093111;28;19923;-61
2021/12/30 07:54:28;;;;;;;;;;;11.00;99.90;;;;;;5092963;28;19920;-60
2021/12/30 07:56:54;;;;;;;;;;;11.00;99.90;;;;;;5093231;28;20445;-61
2021/12/30 07:59:19;;;;;;;;;;;11.00;99.90;;;;;;5093142;28;19962;-61
2021/12/30 08:01:45;;;;;;;;;;;11.00;99.90;;;;;;5092876;28;20373;-61
2021/12/30 08:04:10;;;;;;;;;;;11.00;99.90;;;;;;5092984;28;19916;-61
2021/12/30 08:06:36;;;;;;;;;;;11.00;99.90;;;;;;5092946;28;19915;-61
2021/12/30 08:09:01;;;;;;;;;;;11.00;99.90;;;;;;5092855;28;19916;-61
2021/12/30 08:11:27;;;;;;;;;;;11.00;99.90;;;;;;5092938;28;19995;-61
2021/12/30 08:13:52;;;;;;;;;;;11.00;99.90;;;;;;5092557;28;19920;-61
2021/12/30 08:16:18;;;;;;;;;;;11.00;99.90;;;;;;5092961;28;19963;-61
2021/12/30 08:18:43;;;;;;;;;;;11.10;99.90;;;;;;5091723;28;19970;-61
2021/12/30 08:21:10;;;;;;;;;;;11.10;99.90;;;;;;5092855;28;20370;-61
2021/12/30 08:23:36;;;;;;;;;;;11.10;99.90;;;;;;5092937;28;19919;-61
2021/12/30 08:26:04;;;;;;;;;;;11.10;99.90;;;;;;5092987;28;19938;-60
2021/12/30 08:28:30;;;;;;;;;;;11.20;99.90;;;;;;5093063;28;19923;-61
2021/12/30 08:30:56;;;;;;;;;;;11.20;99.90;;;;;;5092774;28;20664;-60
2021/12/30 08:33:21;;;;;;;;;;;11.20;99.90;;;;;;5092454;28;19920;-61
2021/12/30 08:35:47;;;;;;;;;;;11.20;99.90;;;;;;5092276;28;19920;-61
2021/12/30 08:38:13;;;;;;;;;;;11.20;99.90;;;;;;5091217;28;19923;-61
2021/12/30 08:40:39;;;;;;;;;;;11.20;99.90;;;;;;5092633;28;19916;-61
2021/12/30 08:43:06;;;;;;;;;;;11.30;99.90;;;;;;5092585;28;19961;-59
2021/12/30 08:45:36;;;;;;;;;;;11.30;99.90;;;;;;5092485;28;19920;-60
2021/12/30 08:48:02;;;;;;;;;;;11.30;99.90;;;;;;5092416;28;19916;-60
2021/12/30 08:50:28;;;;;;;;;;;11.40;99.90;;;;;;5096076;28;20323;-60
2021/12/30 08:52:53;;;;;;;;;;;11.40;99.90;;;;;;5096422;28;19942;-60
2021/12/30 08:55:19;;;;;;;;;;;11.40;99.90;;;;;;5096735;28;19916;-60
2021/12/30 08:57:45;;;;;;;;;;;11.50;99.90;;;;;;5096691;28;20409;-60
2021/12/30 09:00:13;;;;;;;;;;;11.50;99.90;;;;;;5096482;28;19961;-60
2021/12/30 09:02:39;;;;;;;;;;;11.60;99.90;;;;;;5096508;28;20285;-60
2021/12/30 09:05:05;;;;;;;;;;;11.60;99.90;;;;;;5095205;28;20293;-60
2021/12/30 09:07:31;;;;;;;;;;;11.60;99.90;;;;;;5096357;28;19923;-61
2021/12/30 09:09:56;;;;;;;;;;;11.60;99.90;;;;;;5096371;28;20405;-61
2021/12/30 09:12:24;;;;;;;;;;;11.60;99.90;;;;;;5096235;28;19924;-61
2021/12/30 09:14:49;;;;;;;;;;;11.60;99.90;;;;;;5096150;28;19916;-60
2021/12/30 09:17:15;;;;;;;;;;;11.60;99.90;;;;;;5096178;28;19927;-61
2021/12/30 09:19:40;;;;;;;;;;;11.60;99.90;;;;;;5096121;28;19916;-61
2021/12/30 09:22:06;;;;;;;;;;;11.60;99.90;;;;;;5096169;28;20286;-61
2021/12/30 09:24:31;;;;;;;;;;;11.60;99.90;;;;;;5095829;28;19916;-61
2021/12/30 09:26:57;;;;;;;;;;;11.60;99.90;;;;;;5096355;28;19923;-61
2021/12/30 09:29:23;;;;;;;;;;;11.50;99.90;;;;;;5096227;28;19990;-61
2021/12/30 09:31:49;;;;;;;;;;;11.60;99.90;;;;;;5095895;28;19922;-60
2021/12/30 09:34:15;;;;;;;;;;;11.50;99.90;;;;;;5095589;28;19938;-61
2021/12/30 09:36:41;;;;;;;;;;;11.60;99.90;;;;;;5096047;28;20339;-61
2021/12/30 09:39:08;;;;;;;;;;;11.50;99.90;;;;;;5095972;28;20365;-61
2021/12/30 09:41:34;;;;;;;;;;;11.50;99.90;;;;;;5095691;28;20369;-60
2021/12/30 09:43:59;;;;;;;;;;;11.60;99.90;;;;;;5095724;28;19916;-61
2021/12/30 09:46:25;;;;;;;;;;;11.60;99.90;;;;;;5095646;28;19920;-61
2021/12/30 09:48:50;;;;;;;;;;;11.50;99.90;;;;;;5095577;28;19916;-62
2021/12/30 09:51:16;;;;;;;;;;;11.60;99.90;;;;;;5095755;28;19915;-61
2021/12/30 09:53:42;;;;;;;;;;;11.60;99.90;;;;;;5094306;28;19916;-61
2021/12/30 09:56:07;;;;;;;;;;;11.60;99.90;;;;;;5095499;28;19920;-60
2021/12/30 09:58:33;;;;;;;;;;;11.60;99.90;;;;;;5095287;28;19916;-60
2021/12/30 10:01:00;;;;;;;;;;;11.60;99.90;;;;;;5094272;28;19916;-61
2021/12/30 10:03:27;;;;;;;;;;;11.60;99.90;;;;;;5095136;28;20377;-61
2021/12/30 10:05:53;;;;;;;;;;;11.60;99.90;;;;;;5095390;28;19916;-61
2021/12/30 10:08:19;;;;;;;;;;;11.60;99.90;;;;;;5095376;28;20274;-61
2021/12/30 10:10:49;;;;;;;;;;;11.60;99.90;;;;;;5095277;28;19920;-60
2021/12/30 10:13:29;;;;;;;;;;;11.60;99.90;;;;;;5095103;28;20003;-60
2021/12/30 10:15:56;;;;;;;;;;;11.60;99.90;;;;;;5094948;28;19943;-61
2021/12/30 10:18:24;;;;;;;;;;;11.60;99.90;;;;;;5095118;28;19923;-60
2021/12/30 10:20:50;;;;;;;;;;;11.60;99.90;;;;;;5095211;28;19923;-60
2021/12/30 10:23:15;;;;;;;;;;;11.70;99.90;;;;;;5094942;28;19919;-61
2021/12/30 10:25:42;;;;;;;;;;;11.70;99.90;;;;;;5095020;28;20483;-61
2021/12/30 10:28:17;;;;;;;;;;;11.70;99.90;;;;;;5094916;28;19923;-61
2021/12/30 10:30:42;;;;;;;;;;;11.60;99.90;;;;;;5094823;28;20015;-61
2021/12/30 10:33:09;;;;;;;;;;;11.60;99.90;;;;;;5094853;28;20058;-61
2021/12/30 10:35:35;;;;;;;;;;;11.60;99.90;;;;;;5094491;28;19943;-61
2021/12/30 10:38:03;;;;;;;;;;;11.60;99.90;;;;;;5094735;28;19920;-61
2021/12/30 10:40:30;;;;;;;;;;;11.60;99.90;;;;;;5094717;28;19916;-61
2021/12/30 10:43:17;;;;;;;;;;;11.60;99.90;;;;;;5094571;28;20019;-61
2021/12/30 10:45:43;;;;;;;;;;;11.60;99.90;;;;;;5094609;28;19927;-59
2021/12/30 10:48:09;;;;;;;;;;;11.60;99.90;;;;;;5094914;28;19916;-61
2021/12/30 10:50:35;;;;;;;;;;;11.60;99.90;;;;;;5094468;28;19916;-61
2021/12/30 10:53:00;;;;;;;;;;;11.60;99.90;;;;;;5093358;28;19927;-60
2021/12/30 10:55:25;;;;;;;;;;;11.60;99.90;;;;;;5094208;28;19916;-60
2021/12/30 10:57:51;;;;;;;;;;;11.60;99.90;;;;;;5094477;28;20264;-61
2021/12/30 11:00:31;;;;;;;;;;;11.60;99.90;;;;;;5094298;28;20361;-61
2021/12/30 11:03:16;;;;;;;;;;;11.60;99.90;;;;;;5094207;28;19916;-60
2021/12/30 11:06:01;;;;;;;;;;;11.60;99.90;;;;;;5093909;28;19920;-61
2021/12/30 11:08:29;;;;;;;;;;;11.60;99.90;;;;;;5094015;28;20387;-61
2021/12/30 11:10:54;;;;;;;;;;;11.60;99.90;;;;;;5094393;28;19920;-60
2021/12/30 11:13:22;;;;;;;;;;;11.60;99.90;;;;;;5093921;28;20605;-61
2021/12/30 11:16:00;;;;;;;;;;;11.60;99.90;;;;;;5094123;28;19920;-60
2021/12/30 11:18:39;;;;;;;;;;;11.60;99.90;;;;;;5093789;28;20351;-60
2021/12/30 11:21:04;;;;;;;;;;;11.70;99.90;;;;;;5094038;28;19958;-61
2021/12/30 11:23:30;;;;;;;;;;;11.60;99.90;;;;;;5094068;28;19975;-61
2021/12/30 11:25:56;;;;;;;;;;;11.50;99.90;;;;;;5093890;28;19970;-61
2021/12/30 11:28:22;;;;;;;;;;;11.60;99.90;;;;;;5093656;28;19923;-60
2021/12/30 11:30:47;;;;;;;;;;;11.60;99.90;;;;;;5093692;28;19923;-61
2021/12/30 11:33:13;;;;;;;;;;;11.60;99.90;;;;;;5093314;28;19967;-61
2021/12/30 11:35:38;;;;;;;;;;;11.60;99.90;;;;;;5093132;28;19927;-61
2021/12/30 11:38:04;;;;;;;;;;;11.60;99.90;;;;;;5093505;28;19916;-61
2021/12/30 11:40:31;;;;;;;;;;;11.60;99.90;;;;;;5093475;28;19954;-61
2021/12/30 11:42:59;;;;;;;;;;;11.60;99.90;;;;;;5093473;28;19916;-60
2021/12/30 11:45:28;;;;;;;;;;;11.50;99.90;;;;;;5093162;28;19916;-59
2021/12/30 11:47:54;;;;;;;;;;;11.60;99.90;;;;;;5093087;28;20376;-61
2021/12/30 11:50:26;;;;;;;;;;;11.60;99.90;;;;;;5093055;28;20362;-61
2021/12/30 11:53:03;;;;;;;;;;;11.60;99.90;;;;;;5093111;28;19942;-61
2021/12/30 11:55:44;;;;;;;;;;;11.70;99.90;;;;;;5093151;28;19920;-61
2021/12/30 11:58:40;;;;;;;;;;;11.70;99.90;;;;;;5093269;28;19920;-61
2021/12/30 12:01:11;;;;;;;;;;;11.70;99.90;;;;;;5093078;28;19927;-60
2021/12/30 12:03:47;;;;;;;;;;;11.70;99.90;;;;;;5092936;28;19916;-60
2021/12/30 12:06:28;;;;;;;;;;;11.70;99.90;;;;;;5093034;28;19919;-60
2021/12/30 12:08:59;;;;;;;;;;;11.70;99.90;;;;;;5093051;28;19999;-60
2021/12/30 12:11:26;;;;;;;;;;;11.70;99.90;;;;;;5092763;28;20370;-61
2021/12/30 12:13:54;;;;;;;;;;;11.70;99.90;;;;;;5092782;28;19989;-61
2021/12/30 12:16:38;;;;;;;;;;;11.70;99.90;;;;;;5092840;28;20285;-60
2021/12/30 12:19:05;;;;;;;;;;;11.70;99.90;;;;;;5092626;28;19920;-61
2021/12/30 12:21:49;;;;;;;;;;;11.80;99.90;;;;;;5092770;28;19922;-60
2021/12/30 12:24:20;;;;;;;;;;;11.70;99.90;;;;;;5092114;28;19920;-60
2021/12/30 12:26:46;;;;;;;;;;;11.80;99.90;;;;;;5092513;28;19920;-60
2021/12/30 12:29:22;;;;;;;;;;;11.70;99.90;;;;;;5092578;28;20376;-60
2021/12/30 12:31:58;;;;;;;;;;;11.70;99.90;;;;;;5092759;28;20361;-60
2021/12/30 12:34:32;;;;;;;;;;;11.70;99.90;;;;;;5092669;28;19982;-60
2021/12/30 12:36:58;;;;;;;;;;;11.70;99.90;;;;;;5092356;28;19920;-60
2021/12/30 12:39:37;;;;;;;;;;;11.80;99.90;;;;;;5092479;28;19916;-61
2021/12/30 12:42:03;;;;;;;;;;;11.70;99.90;;;;;;5092520;28;19916;-60
2021/12/30 12:44:29;;;;;;;;;;;11.80;99.90;;;;;;5092694;28;19923;-61
2021/12/30 12:46:55;;;;;;;;;;;11.80;99.90;;;;;;5092569;28;20011;-59
2021/12/30 12:49:32;;;;;;;;;;;11.80;99.90;;;;;;5092566;28;19990;-61
2021/12/30 12:51:58;;;;;;;;;;;11.80;99.90;;;;;;5092405;28;19939;-61
2021/12/30 12:54:34;;;;;;;;;;;11.80;99.90;;;;;;5092243;28;20295;-61
2021/12/30 12:57:20;;;;;;;;;;;11.80;99.90;;;;;;5092174;28;19916;-62
2021/12/30 12:59:46;;;;;;;;;;;11.80;99.90;;;;;;5092070;28;19923;-60
2021/12/30 13:02:13;;;;;;;;;;;11.80;99.90;;;;;;5092612;28;19994;-61
2021/12/30 13:04:38;;;;;;;;;;;11.80;99.90;;;;;;5092365;28;19935;-61
2021/12/30 13:07:11;;;;;;;;;;;11.80;99.90;;;;;;5091996;28;20346;-61
2021/12/30 13:09:37;;;;;;;;;;;11.90;99.90;;;;;;5092058;28;19916;-60
2021/12/30 13:12:05;;;;;;;;;;;11.80;99.90;;;;;;5092348;28;19916;-60
2021/12/30 13:14:31;;;;;;;;;;;11.80;99.90;;;;;;5092289;28;19920;-61
2021/12/30 13:17:01;;;;;;;;;;;11.80;99.90;;;;;;5092233;28;19923;-61
2021/12/30 13:19:28;;;;;;;;;;;11.80;99.90;;;;;;5092062;28;19915;-61
2021/12/30 13:21:53;;;;;;;;;;;11.80;99.90;;;;;;5092058;28;19922;-60
2021/12/30 13:24:37;;;;;;;;;;;11.80;99.90;;;;;;5092291;28;19916;-60
2021/12/30 13:27:22;;;;;;;;;;;11.80;99.90;;;;;;5092465;28;19916;-62
2021/12/30 13:29:53;;;;;;;;;;;11.80;99.90;;;;;;5091173;28;19923;-61
2021/12/30 13:32:21;;;;;;;;;;;11.80;99.90;;;;;;5091263;28;19920;-61
2021/12/30 13:34:57;;;;;;;;;;;11.70;99.90;;;;;;5091638;28;19920;-59
2021/12/30 13:37:23;;;;;;;;;;;11.80;99.90;;;;;;5094908;28;19962;-61
2021/12/30 13:39:54;;;;;;;;;;;11.70;99.90;;;;;;5095593;28;20405;-61
2021/12/30 13:42:20;;;;;;;;;;;11.70;99.90;;;;;;5095442;28;19923;-60
2021/12/30 13:44:52;;;;;;;;;;;11.70;99.90;;;;;;5095668;28;19916;-61
2021/12/30 13:47:19;;;;;;;;;;;11.80;99.90;;;;;;5095670;28;19916;-61
2021/12/30 13:49:46;;;;;;;;;;;11.80;99.90;;;;;;5094215;28;19927;-60
2021/12/30 13:52:11;;;;;;;;;;;11.80;99.90;;;;;;5095501;28;19916;-60
2021/12/30 13:54:37;;;;;;;;;;;11.80;99.90;;;;;;5095293;28;19916;-61
2021/12/30 13:57:03;;;;;;;;;;;11.80;99.90;;;;;;5095402;28;19916;-60
2021/12/30 13:59:29;;;;;;;;;;;11.80;99.90;;;;;;5095506;28;19916;-61
2021/12/30 14:01:56;;;;;;;;;;;11.80;99.90;;;;;;5095434;28;19963;-61
2021/12/30 14:04:28;;;;;;;;;;;11.80;99.90;;;;;;5095330;28;19916;-60
2021/12/30 14:06:57;;;;;;;;;;;11.80;99.90;;;;;;5095174;28;19916;-60
2021/12/30 14:09:23;;;;;;;;;;;11.80;99.90;;;;;;5095356;28;19985;-61
2021/12/30 14:11:52;;;;;;;;;;;11.80;99.90;;;;;;5095449;28;19920;-60
2021/12/30 14:14:24;;;;;;;;;;;11.80;99.90;;;;;;5095305;28;19924;-61
2021/12/30 14:16:53;;;;;;;;;;;11.80;99.90;;;;;;5095103;28;20332;-60
2021/12/30 14:19:26;;;;;;;;;;;11.80;99.90;;;;;;5095026;28;19974;-59
2021/12/30 14:21:51;;;;;;;;;;;11.80;99.90;;;;;;5094871;28;20293;-61
2021/12/30 14:24:22;;;;;;;;;;;11.80;99.90;;;;;;5095123;28;19916;-60